createdAt,value
2018-05-15T00:00:17.120Z,9.20
2018-05-15T00:01:20.439Z,9.00
2018-05-15T00:02:23.747Z,8.25
2018-05-15T00:03:27.080Z,8.80
2018-05-15T00:04:30.394Z,9.52
2018-05-15T00:05:33.765Z,10.35
2018-05-15T00:06:37.099Z,8.75
2018-05-15T00:07:40.409Z,8.52
2018-05-15T00:08:43.725Z,8.55
2018-05-15T00:09:47.059Z,9.60
2018-05-15T00:10:50.434Z,8.75
2018-05-15T00:11:53.798Z,9.25
2018-05-15T00:12:57.356Z,9.13
2018-05-15T00:14:00.707Z,8.35
2018-05-15T00:15:04.077Z,9.43
2018-05-15T00:16:07.621Z,8.77
2018-05-15T00:17:10.983Z,8.90
2018-05-15T00:18:14.293Z,8.05
2018-05-15T00:19:17.618Z,8.93
2018-05-15T00:20:20.918Z,8.55
2018-05-15T00:21:24.298Z,9.55
2018-05-15T00:22:27.604Z,9.32
2018-05-15T00:23:30.931Z,9.25
2018-05-15T00:24:34.254Z,9.35
2018-05-15T00:25:37.562Z,9.52
2018-05-15T00:26:41.043Z,8.55
2018-05-15T00:27:44.354Z,9.02
2018-05-15T00:28:47.685Z,9.45
2018-05-15T00:29:51.010Z,9.60
2018-05-15T00:30:54.326Z,9.25
2018-05-15T00:31:57.733Z,9.40
2018-05-15T00:33:01.147Z,9.02
2018-05-15T00:34:04.468Z,9.52
2018-05-15T00:35:07.788Z,8.60
2018-05-15T00:36:11.099Z,8.52
2018-05-15T00:37:14.811Z,9.20
2018-05-15T00:38:18.128Z,8.35
2018-05-15T00:39:21.455Z,9.40
2018-05-15T00:40:24.766Z,8.95
2018-05-15T00:41:28.086Z,9.23
2018-05-15T00:42:31.446Z,8.70
2018-05-15T00:43:34.776Z,9.38
2018-05-15T00:44:38.086Z,8.68
2018-05-15T00:45:41.411Z,8.90
2018-05-15T00:46:44.737Z,9.25
2018-05-15T00:47:48.099Z,8.90
2018-05-15T00:48:51.424Z,9.40
2018-05-15T00:49:54.736Z,9.40
2018-05-15T00:50:58.125Z,9.60
2018-05-15T00:52:01.527Z,9.50
2018-05-15T00:53:04.934Z,8.93
2018-05-15T00:54:08.231Z,9.05
2018-05-15T00:55:23.372Z,9.27
2018-05-15T00:56:26.671Z,9.35
2018-05-15T00:57:29.980Z,9.00
2018-05-15T00:58:33.353Z,8.20
2018-05-15T00:59:36.654Z,9.65
2018-05-15T01:00:39.955Z,8.82
2018-05-15T01:01:43.276Z,9.23
2018-05-15T01:02:46.591Z,9.15
2018-05-15T01:03:50.095Z,9.50
2018-05-15T01:04:53.411Z,8.73
2018-05-15T01:05:56.718Z,9.23
2018-05-15T01:07:00.063Z,8.93
2018-05-15T01:08:03.378Z,9.52
2018-05-15T01:09:06.792Z,9.13
2018-05-15T01:10:10.098Z,9.93
2018-05-15T01:11:13.402Z,8.77
2018-05-15T01:12:16.732Z,9.80
2018-05-15T01:13:20.047Z,9.43
2018-05-15T01:14:23.559Z,9.60
2018-05-15T01:15:26.876Z,8.93
2018-05-15T01:16:30.314Z,9.35
2018-05-15T01:17:33.634Z,10.02
2018-05-15T01:18:36.978Z,8.80
2018-05-15T01:19:40.482Z,8.95
2018-05-15T01:20:43.806Z,10.35
2018-05-15T01:21:47.123Z,9.30
2018-05-15T01:22:50.456Z,10.07
2018-05-15T01:23:53.767Z,9.23
2018-05-15T01:24:57.112Z,9.55
2018-05-15T01:26:00.419Z,9.13
2018-05-15T01:27:03.817Z,9.75
2018-05-15T01:28:07.126Z,9.57
2018-05-15T01:29:10.451Z,10.15
2018-05-15T01:30:13.847Z,10.82
2018-05-15T01:31:17.160Z,9.60
2018-05-15T01:32:20.478Z,9.35
2018-05-15T01:33:23.802Z,9.95
2018-05-15T01:34:27.115Z,9.85
2018-05-15T01:35:30.522Z,9.95
2018-05-15T01:36:33.863Z,10.73
2018-05-15T01:37:37.390Z,10.05
2018-05-15T01:38:40.702Z,9.70
2018-05-15T01:39:44.031Z,10.55
2018-05-15T01:40:47.591Z,10.23
2018-05-15T01:41:50.910Z,11.50
2018-05-15T01:42:54.235Z,10.18
2018-05-15T01:43:57.543Z,9.43
2018-05-15T01:45:00.862Z,9.20
2018-05-15T01:46:04.224Z,9.75
2018-05-15T01:47:07.539Z,10.10
2018-05-15T01:48:10.855Z,8.82
2018-05-15T01:49:14.179Z,10.00
2018-05-15T01:50:17.501Z,9.80
2018-05-15T01:51:20.846Z,9.77
2018-05-15T01:52:24.386Z,9.85
2018-05-15T01:53:28.051Z,9.57
2018-05-15T01:54:31.365Z,10.07
2018-05-15T01:55:34.678Z,9.88
2018-05-15T01:56:38.133Z,9.40
2018-05-15T01:57:41.438Z,8.73
2018-05-15T01:58:44.754Z,9.70
2018-05-15T01:59:48.093Z,9.50
2018-05-15T02:00:51.638Z,9.20
2018-05-15T02:01:55.016Z,8.75
2018-05-15T02:02:58.333Z,8.85
2018-05-15T02:04:01.638Z,9.50
2018-05-15T02:05:04.962Z,10.35
2018-05-15T02:06:08.290Z,10.15
2018-05-15T02:07:11.661Z,9.60
2018-05-15T02:08:14.989Z,9.60
2018-05-15T02:09:18.296Z,9.45
2018-05-15T02:10:21.625Z,10.00
2018-05-15T02:11:24.951Z,10.77
2018-05-15T02:12:33.691Z,9.60
2018-05-15T02:13:37.023Z,9.73
2018-05-15T02:14:40.360Z,9.80
2018-05-15T02:15:43.684Z,9.88
2018-05-15T02:16:46.995Z,9.50
2018-05-15T02:17:50.504Z,10.00
2018-05-15T02:18:53.805Z,9.23
2018-05-15T02:19:57.138Z,9.75
2018-05-15T02:21:00.458Z,10.45
2018-05-15T02:22:03.770Z,9.68
2018-05-15T02:23:07.141Z,10.48
2018-05-15T02:24:10.537Z,9.73
2018-05-15T02:25:13.854Z,9.88
2018-05-15T02:26:17.150Z,9.20
2018-05-15T02:27:20.533Z,9.98
2018-05-15T02:28:23.917Z,9.40
2018-05-15T02:29:27.233Z,10.68
2018-05-15T02:30:30.851Z,9.00
2018-05-15T02:31:34.148Z,9.43
2018-05-15T02:32:37.457Z,10.00
2018-05-15T02:33:40.848Z,9.90
2018-05-15T02:34:44.166Z,9.10
2018-05-15T02:35:47.481Z,10.27
2018-05-15T02:36:50.811Z,8.75
2018-05-15T02:37:54.610Z,9.82
2018-05-15T02:38:57.984Z,11.25
2018-05-15T02:40:01.291Z,9.23
2018-05-15T02:41:04.600Z,9.95
2018-05-15T02:42:07.918Z,9.65
2018-05-15T02:43:11.225Z,9.35
2018-05-15T02:44:14.727Z,10.25
2018-05-15T02:45:18.038Z,9.10
2018-05-15T02:46:21.371Z,9.32
2018-05-15T02:47:24.695Z,9.70
2018-05-15T02:48:28.017Z,9.35
2018-05-15T02:49:31.408Z,9.55
2018-05-15T02:50:34.743Z,9.25
2018-05-15T02:51:38.261Z,9.65
2018-05-15T02:52:41.585Z,8.85
2018-05-15T02:53:44.877Z,8.85
2018-05-15T02:54:48.251Z,9.23
2018-05-15T02:55:51.554Z,9.30
2018-05-15T02:56:54.880Z,10.02
2018-05-15T02:57:58.183Z,9.23
2018-05-15T02:59:01.503Z,9.40
2018-05-15T03:00:05.114Z,9.93
2018-05-15T03:01:08.435Z,9.75
2018-05-15T03:02:11.809Z,8.90
2018-05-15T03:03:15.104Z,9.93
2018-05-15T03:04:18.423Z,10.48
2018-05-15T03:05:21.954Z,10.60
2018-05-15T03:06:25.314Z,9.38
2018-05-15T03:07:28.636Z,10.45
2018-05-15T03:08:31.936Z,9.93
2018-05-15T03:09:35.262Z,9.80
2018-05-15T03:10:38.791Z,10.18
2018-05-15T03:11:42.145Z,9.43
2018-05-15T03:12:45.420Z,9.40
2018-05-15T03:13:48.745Z,9.10
2018-05-15T03:14:52.110Z,8.52
2018-05-15T03:15:55.494Z,10.90
2018-05-15T03:16:58.856Z,9.95
2018-05-15T03:18:02.186Z,9.98
2018-05-15T03:19:05.654Z,9.38
2018-05-15T03:20:08.963Z,9.50
2018-05-15T03:21:12.642Z,10.82
2018-05-15T03:22:15.951Z,9.05
2018-05-15T03:23:19.274Z,9.43
2018-05-15T03:24:22.582Z,9.00
2018-05-15T03:25:25.894Z,9.25
2018-05-15T03:26:29.246Z,9.45
2018-05-15T03:27:32.562Z,9.27
2018-05-15T03:28:35.880Z,7.87
2018-05-15T03:29:39.215Z,8.77
2018-05-15T03:30:42.530Z,9.45
2018-05-15T03:31:45.867Z,9.90
2018-05-15T03:32:49.186Z,8.82
2018-05-15T03:33:52.499Z,8.75
2018-05-15T03:34:55.905Z,9.65
2018-05-15T03:35:59.276Z,8.50
2018-05-15T03:37:02.622Z,9.52
2018-05-15T03:38:06.068Z,8.13
2018-05-15T03:39:09.371Z,8.93
2018-05-15T03:40:12.695Z,9.90
2018-05-15T03:41:16.018Z,9.98
2018-05-15T03:42:19.401Z,7.95
2018-05-15T03:43:22.708Z,9.48
2018-05-15T03:44:26.035Z,9.57
2018-05-15T03:45:29.359Z,8.95
2018-05-15T03:46:32.703Z,8.60
2018-05-15T03:47:36.042Z,9.30
2018-05-15T03:48:39.353Z,8.73
2018-05-15T03:49:42.669Z,8.82
2018-05-15T03:50:45.990Z,9.23
2018-05-15T03:51:49.317Z,8.82
2018-05-15T03:52:52.673Z,9.35
2018-05-15T03:53:55.990Z,8.75
2018-05-15T03:54:59.298Z,8.20
2018-05-15T03:56:02.646Z,9.60
2018-05-15T03:57:05.967Z,9.27
2018-05-15T03:58:09.307Z,9.00
2018-05-15T03:59:12.619Z,9.05
2018-05-15T04:00:27.606Z,8.80
2018-05-15T04:01:42.582Z,8.90
2018-05-15T04:02:57.567Z,9.27
2018-05-15T04:04:12.543Z,8.95
2018-05-15T04:05:27.704Z,8.40
2018-05-15T04:06:42.687Z,8.77
2018-05-15T04:07:57.814Z,8.98
2018-05-15T04:09:01.145Z,8.68
2018-05-15T04:10:04.492Z,8.32
2018-05-15T04:11:07.881Z,9.00
2018-05-15T04:12:11.146Z,8.88
2018-05-15T04:13:14.457Z,8.48
2018-05-15T04:14:17.804Z,8.30
2018-05-15T04:15:21.192Z,8.95
2018-05-15T04:16:24.486Z,9.77
2018-05-15T04:17:27.803Z,8.63
2018-05-15T04:18:31.119Z,8.88
2018-05-15T04:19:34.443Z,9.05
2018-05-15T04:20:37.820Z,8.45
2018-05-15T04:21:41.151Z,8.65
2018-05-15T04:22:44.482Z,9.63
2018-05-15T04:23:47.795Z,8.70
2018-05-15T04:24:51.105Z,9.25
2018-05-15T04:25:54.605Z,8.00
2018-05-15T04:26:57.904Z,9.15
2018-05-15T04:28:01.312Z,9.25
2018-05-15T04:29:04.558Z,8.35
2018-05-15T04:30:07.867Z,9.18
2018-05-15T04:31:11.266Z,9.57
2018-05-15T04:32:14.575Z,10.85
2018-05-15T04:33:17.905Z,9.65
2018-05-15T04:34:21.292Z,9.50
2018-05-15T04:35:24.695Z,9.10
2018-05-15T04:36:27.952Z,8.30
2018-05-15T04:37:31.262Z,9.43
2018-05-15T04:38:34.717Z,8.82
2018-05-15T04:39:38.031Z,9.50
2018-05-15T04:40:41.340Z,8.70
2018-05-15T04:41:44.691Z,9.57
2018-05-15T04:42:48.007Z,8.90
2018-05-15T04:43:51.601Z,9.32
2018-05-15T04:44:54.679Z,9.15
2018-05-15T04:45:58.042Z,9.63
2018-05-15T04:47:01.396Z,8.60
2018-05-15T04:48:04.729Z,9.13
2018-05-15T04:49:08.050Z,9.68
2018-05-15T04:50:11.378Z,9.57
2018-05-15T04:51:14.699Z,9.50
2018-05-15T04:52:18.051Z,9.30
2018-05-15T04:53:21.375Z,9.13
2018-05-15T04:54:24.745Z,9.20
2018-05-15T04:55:28.073Z,9.20
2018-05-15T04:56:31.412Z,9.98
2018-05-15T04:57:34.760Z,8.70
2018-05-15T04:58:38.089Z,9.50
2018-05-15T04:59:41.406Z,9.55
2018-05-15T05:00:44.714Z,8.73
2018-05-15T05:01:48.073Z,8.95
2018-05-15T05:02:51.430Z,8.88
2018-05-15T05:03:54.747Z,10.55
2018-05-15T05:04:58.063Z,10.48
2018-05-15T05:06:01.455Z,9.93
2018-05-15T05:07:04.770Z,8.55
2018-05-15T05:08:08.119Z,10.57
2018-05-15T05:09:11.445Z,9.48
2018-05-15T05:10:14.994Z,10.38
2018-05-15T05:11:18.321Z,10.10
2018-05-15T05:12:21.634Z,9.43
2018-05-15T05:13:24.999Z,10.38
2018-05-15T05:14:28.307Z,9.82
2018-05-15T05:15:31.650Z,9.82
2018-05-15T05:16:34.963Z,9.70
2018-05-15T05:17:38.283Z,9.55
2018-05-15T05:18:41.626Z,9.80
2018-05-15T05:19:44.961Z,9.52
2018-05-15T05:20:48.294Z,9.30
2018-05-15T05:21:51.629Z,9.43
2018-05-15T05:22:54.947Z,9.70
2018-05-15T05:23:58.285Z,9.35
2018-05-15T05:25:01.619Z,9.82
2018-05-15T05:26:04.938Z,9.95
2018-05-15T05:27:08.326Z,8.50
2018-05-15T05:28:11.567Z,9.07
2018-05-15T05:29:14.921Z,9.00
2018-05-15T05:30:18.303Z,9.18
2018-05-15T05:31:21.647Z,9.30
2018-05-15T05:32:25.003Z,9.13
2018-05-15T05:33:28.316Z,8.80
2018-05-15T05:34:31.746Z,9.02
2018-05-15T05:35:35.076Z,7.85
2018-05-15T05:36:38.448Z,10.20
2018-05-15T05:37:41.782Z,9.07
2018-05-15T05:38:45.303Z,8.88
2018-05-15T05:39:48.652Z,8.80
2018-05-15T05:40:51.974Z,9.50
2018-05-15T05:41:55.305Z,8.43
2018-05-15T05:42:58.647Z,9.02
2018-05-15T05:44:01.983Z,9.70
2018-05-15T05:45:05.427Z,9.00
2018-05-15T05:46:08.779Z,8.38
2018-05-15T05:47:12.081Z,8.90
2018-05-15T05:48:15.463Z,7.53
2018-05-15T05:49:19.038Z,9.70
2018-05-15T05:50:22.509Z,8.90
2018-05-15T05:51:25.874Z,8.77
2018-05-15T05:52:29.191Z,9.63
2018-05-15T05:53:32.701Z,8.80
2018-05-15T05:54:36.003Z,9.87
2018-05-15T05:55:39.351Z,8.43
2018-05-15T05:56:42.661Z,8.50
2018-05-15T05:57:45.981Z,8.53
2018-05-15T05:58:49.302Z,8.70
2018-05-15T05:59:52.619Z,8.50
2018-05-15T06:00:55.991Z,8.20
2018-05-15T06:01:59.305Z,8.47
2018-05-15T06:03:03.021Z,7.73
2018-05-15T06:04:06.337Z,8.50
2018-05-15T06:05:09.669Z,9.03
2018-05-15T06:06:13.013Z,7.63
2018-05-15T06:07:16.394Z,8.77
2018-05-15T06:08:19.656Z,8.37
2018-05-15T06:09:22.944Z,8.40
2018-05-15T06:10:26.258Z,9.13
2018-05-15T06:11:29.604Z,8.50
2018-05-15T06:12:32.899Z,7.90
2018-05-15T06:13:36.207Z,7.40
2018-05-15T06:14:39.629Z,7.87
2018-05-15T06:15:42.924Z,7.57
2018-05-15T06:16:46.309Z,7.80
2018-05-15T06:17:49.626Z,8.00
2018-05-15T06:18:52.988Z,7.80
2018-05-15T06:19:56.274Z,6.87
2018-05-15T06:20:59.714Z,7.47
2018-05-15T06:22:02.984Z,7.80
2018-05-15T06:23:06.301Z,7.00
2018-05-15T06:24:09.601Z,8.97
2018-05-15T06:25:12.943Z,7.80
2018-05-15T06:26:16.277Z,8.10
2018-05-15T06:27:19.599Z,8.00
2018-05-15T06:28:22.921Z,7.87
2018-05-15T06:29:26.240Z,8.43
2018-05-15T06:30:29.559Z,7.13
2018-05-15T06:31:32.883Z,7.80
2018-05-15T06:32:36.239Z,8.03
2018-05-15T06:33:39.550Z,8.20
2018-05-15T06:34:42.883Z,7.70
2018-05-15T06:35:46.198Z,10.00
2018-05-15T06:36:49.527Z,7.80
2018-05-15T06:37:52.963Z,8.10
2018-05-15T06:38:56.413Z,7.17
2018-05-15T06:39:59.739Z,7.27
2018-05-15T06:41:03.042Z,8.00
2018-05-15T06:42:06.444Z,7.53
2018-05-15T06:43:09.793Z,7.30
2018-05-15T06:44:13.101Z,7.77
2018-05-15T06:45:16.415Z,7.53
2018-05-15T06:46:19.711Z,6.57
2018-05-15T06:47:23.072Z,7.07
2018-05-15T06:48:26.908Z,6.10
2018-05-15T06:49:30.214Z,6.70
2018-05-15T06:50:33.621Z,7.50
2018-05-15T06:51:36.922Z,7.17
2018-05-15T06:52:40.238Z,7.13
2018-05-15T06:53:43.614Z,7.10
2018-05-15T06:54:46.915Z,6.50
2018-05-15T06:55:50.229Z,6.60
2018-05-15T06:56:53.537Z,6.73
2018-05-15T06:57:56.859Z,6.40
2018-05-15T06:59:00.230Z,6.73
2018-05-15T07:00:03.524Z,6.53
2018-05-15T07:01:06.828Z,6.80
2018-05-15T07:02:10.135Z,7.43
2018-05-15T07:03:13.442Z,6.93
2018-05-15T07:04:16.802Z,6.97
2018-05-15T07:05:20.102Z,6.63
2018-05-15T07:06:23.415Z,6.10
2018-05-15T07:07:26.715Z,6.17
2018-05-15T07:08:30.019Z,6.07
2018-05-15T07:09:33.390Z,6.37
2018-05-15T07:10:36.706Z,6.53
2018-05-15T07:11:40.033Z,6.40
2018-05-15T07:12:43.331Z,6.50
2018-05-15T07:13:46.662Z,6.77
2018-05-15T07:15:59.615Z,6.77
2018-05-15T07:18:12.363Z,7.03
2018-05-15T07:19:15.780Z,8.67
2018-05-15T07:20:19.069Z,6.87
2018-05-15T07:21:22.404Z,6.27
2018-05-15T07:22:25.731Z,6.90
2018-05-15T07:23:29.028Z,6.23
2018-05-15T07:24:32.350Z,8.03
2018-05-15T07:25:35.703Z,6.87
2018-05-15T07:26:39.024Z,6.53
2018-05-15T07:27:42.346Z,6.57
2018-05-15T07:28:45.739Z,6.80
2018-05-15T07:29:49.088Z,6.97
2018-05-15T07:30:52.434Z,6.47
2018-05-15T07:31:55.765Z,7.40
2018-05-15T07:32:59.080Z,6.53
2018-05-15T07:34:02.390Z,6.77
2018-05-15T07:35:05.703Z,7.20
2018-05-15T07:36:09.055Z,7.40
2018-05-15T07:37:12.378Z,6.40
2018-05-15T07:38:15.693Z,7.60
2018-05-15T07:39:19.375Z,8.10
2018-05-15T07:40:22.689Z,7.57
2018-05-15T07:41:26.034Z,5.77
2018-05-15T07:42:29.362Z,6.47
2018-05-15T07:43:32.690Z,6.17
2018-05-15T07:44:36.021Z,7.80
2018-05-15T07:45:39.382Z,7.03
2018-05-15T07:46:42.726Z,6.83
2018-05-15T07:47:46.041Z,7.00
2018-05-15T07:48:49.421Z,7.30
2018-05-15T07:49:52.651Z,7.60
2018-05-15T07:50:55.986Z,7.37
2018-05-15T07:51:59.312Z,7.00
2018-05-15T07:53:02.623Z,7.23
2018-05-15T07:54:05.938Z,6.65
2018-05-15T07:55:09.263Z,7.57
2018-05-15T07:56:12.588Z,7.23
2018-05-15T07:57:15.929Z,7.82
2018-05-15T07:58:19.231Z,7.00
2018-05-15T07:59:22.603Z,7.20
2018-05-15T08:00:25.919Z,7.37
2018-05-15T08:01:29.227Z,7.00
2018-05-15T08:02:32.560Z,7.30
2018-05-15T08:03:36.188Z,7.07
2018-05-15T08:04:39.515Z,7.68
2018-05-15T08:05:42.842Z,8.15
2018-05-15T08:06:46.249Z,6.80
2018-05-15T08:07:49.584Z,7.90
2018-05-15T08:08:52.906Z,8.10
2018-05-15T08:09:56.210Z,8.07
2018-05-15T08:10:59.531Z,6.75
2018-05-15T08:12:02.875Z,7.10
2018-05-15T08:13:06.205Z,6.50
2018-05-15T08:14:09.524Z,6.90
2018-05-15T08:15:12.834Z,6.80
2018-05-15T08:16:16.190Z,6.30
2018-05-15T08:17:19.447Z,6.82
2018-05-15T08:18:22.790Z,8.48
2018-05-15T08:19:26.141Z,7.00
2018-05-15T08:20:29.487Z,7.28
2018-05-15T08:21:32.787Z,6.57
2018-05-15T08:22:36.175Z,6.90
2018-05-15T08:23:39.470Z,6.60
2018-05-15T08:24:42.797Z,7.53
2018-05-15T08:25:46.111Z,6.60
2018-05-15T08:26:49.432Z,8.02
2018-05-15T08:27:52.753Z,8.43
2018-05-15T08:28:56.091Z,6.60
2018-05-15T08:29:59.390Z,7.83
2018-05-15T08:31:03.094Z,7.30
2018-05-15T08:32:06.403Z,7.40
2018-05-15T08:33:09.804Z,6.97
2018-05-15T08:34:13.170Z,7.53
2018-05-15T08:35:17.770Z,6.83
2018-05-15T08:36:21.070Z,7.83
2018-05-15T08:37:24.558Z,7.50
2018-05-15T08:38:27.847Z,6.90
2018-05-15T08:39:31.243Z,7.83
2018-05-15T08:40:34.588Z,8.20
2018-05-15T08:41:37.899Z,8.67
2018-05-15T08:42:41.228Z,7.80
2018-05-15T08:43:44.546Z,6.90
2018-05-15T08:44:47.918Z,7.10
2018-05-15T08:45:51.228Z,6.33
2018-05-15T08:46:54.560Z,7.23
2018-05-15T08:47:57.874Z,6.90
2018-05-15T08:49:01.181Z,7.10
2018-05-15T08:50:04.515Z,6.75
2018-05-15T08:51:07.868Z,6.67
2018-05-15T08:52:11.203Z,6.90
2018-05-15T08:53:14.531Z,7.90
2018-05-15T08:54:17.878Z,6.60
2018-05-15T08:55:21.205Z,6.00
2018-05-15T08:56:24.531Z,6.25
2018-05-15T08:57:27.830Z,6.33
2018-05-15T08:58:31.270Z,5.93
2018-05-15T08:59:34.578Z,6.97
2018-05-15T09:00:37.912Z,6.80
2018-05-15T09:01:41.256Z,6.72
2018-05-15T09:02:44.571Z,6.60
2018-05-15T09:03:47.898Z,7.07
2018-05-15T09:04:52.522Z,6.03
2018-05-15T09:05:56.886Z,6.90
2018-05-15T09:07:00.573Z,6.33
2018-05-15T09:08:03.879Z,6.68
2018-05-15T09:09:07.180Z,6.27
2018-05-15T09:10:10.626Z,8.25
2018-05-15T09:11:13.962Z,7.10
2018-05-15T09:12:17.275Z,6.57
2018-05-15T09:13:20.623Z,5.87
2018-05-15T09:14:23.940Z,5.80
2018-05-15T09:15:27.269Z,7.00
2018-05-15T09:16:30.604Z,6.60
2018-05-15T09:17:33.930Z,6.07
2018-05-15T09:18:37.251Z,6.10
2018-05-15T09:19:40.587Z,6.00
2018-05-15T09:20:43.888Z,5.77
2018-05-15T09:21:47.234Z,5.83
2018-05-15T09:22:50.547Z,6.45
2018-05-15T09:23:53.855Z,6.43
2018-05-15T09:24:57.162Z,5.62
2018-05-15T09:26:00.489Z,6.07
2018-05-15T09:27:03.846Z,7.00
2018-05-15T09:28:07.160Z,6.05
2018-05-15T09:29:10.767Z,6.00
2018-05-15T09:30:14.120Z,5.70
2018-05-15T09:31:17.564Z,6.00
2018-05-15T09:32:20.936Z,5.47
2018-05-15T09:33:24.235Z,6.73
2018-05-15T09:34:27.554Z,5.60
2018-05-15T09:35:30.896Z,5.80
2018-05-15T09:36:34.191Z,6.00
2018-05-15T09:37:37.681Z,6.17
2018-05-15T09:38:41.225Z,5.80
2018-05-15T09:39:44.942Z,6.50
2018-05-15T09:40:48.274Z,5.80
2018-05-15T09:41:51.621Z,5.73
2018-05-15T09:42:54.945Z,6.40
2018-05-15T09:43:58.277Z,6.25
2018-05-15T09:45:01.623Z,5.77
2018-05-15T09:46:04.929Z,5.77
2018-05-15T09:47:08.240Z,5.93
2018-05-15T09:48:11.571Z,5.97
2018-05-15T09:49:14.876Z,5.50
2018-05-15T09:50:18.188Z,5.15
2018-05-15T09:51:21.624Z,6.00
2018-05-15T09:52:25.046Z,7.75
2018-05-15T09:53:28.343Z,5.85
2018-05-15T09:54:31.647Z,6.00
2018-05-15T09:55:34.987Z,5.13
2018-05-15T09:56:38.297Z,4.60
2018-05-15T09:57:41.599Z,5.70
2018-05-15T09:58:44.923Z,5.50
2018-05-15T09:59:48.248Z,6.13
2018-05-15T10:00:51.551Z,5.93
2018-05-15T10:01:54.961Z,5.45
2018-05-15T10:02:58.274Z,5.43
2018-05-15T10:04:01.598Z,5.50
2018-05-15T10:05:04.914Z,5.70
2018-05-15T10:06:08.227Z,5.27
2018-05-15T10:07:11.543Z,5.90
2018-05-15T10:08:14.861Z,5.40
2018-05-15T10:09:18.220Z,5.77
2018-05-15T10:10:21.554Z,6.10
2018-05-15T10:11:24.869Z,5.60
2018-05-15T10:12:28.192Z,6.30
2018-05-15T10:13:31.526Z,5.67
2018-05-15T10:14:35.545Z,6.12
2018-05-15T10:15:38.855Z,5.23
2018-05-15T10:16:42.215Z,5.53
2018-05-15T10:17:45.845Z,5.63
2018-05-15T10:18:49.615Z,5.47
2018-05-15T10:19:52.981Z,5.83
2018-05-15T10:20:56.271Z,5.17
2018-05-15T10:21:59.579Z,6.33
2018-05-15T10:23:02.879Z,6.50
2018-05-15T10:24:06.188Z,5.60
2018-05-15T10:25:09.741Z,5.97
2018-05-15T10:26:13.061Z,6.00
2018-05-15T10:27:16.398Z,5.80
2018-05-15T10:28:19.712Z,6.23
2018-05-15T10:29:23.085Z,5.17
2018-05-15T10:30:26.434Z,5.60
2018-05-15T10:31:29.764Z,5.77
2018-05-15T10:32:33.081Z,6.53
2018-05-15T10:33:36.402Z,5.43
2018-05-15T10:34:39.712Z,6.67
2018-05-15T10:35:43.055Z,5.70
2018-05-15T10:36:46.412Z,5.77
2018-05-15T10:37:49.704Z,5.80
2018-05-15T10:38:53.042Z,5.97
2018-05-15T10:39:56.607Z,5.90
2018-05-15T10:40:59.938Z,5.60
2018-05-15T10:42:03.245Z,5.80
2018-05-15T10:43:06.551Z,6.23
2018-05-15T10:44:09.875Z,5.97
2018-05-15T10:45:13.190Z,5.27
2018-05-15T10:46:16.519Z,5.73
2018-05-15T10:47:19.823Z,6.00
2018-05-15T10:48:23.140Z,6.30
2018-05-15T10:49:26.499Z,6.40
2018-05-15T10:50:29.814Z,6.50
2018-05-15T10:51:33.150Z,5.80
2018-05-15T10:52:36.451Z,6.50
2018-05-15T10:53:39.760Z,5.87
2018-05-15T10:54:43.087Z,5.63
2018-05-15T10:55:46.408Z,5.43
2018-05-15T10:56:49.723Z,5.47
2018-05-15T10:57:53.035Z,6.00
2018-05-15T10:58:56.404Z,5.87
2018-05-15T10:59:59.741Z,6.23
2018-05-15T11:01:03.031Z,6.13
2018-05-15T11:02:06.356Z,6.80
2018-05-15T11:03:09.678Z,6.20
2018-05-15T11:04:12.966Z,6.63
2018-05-15T11:05:16.274Z,5.50
2018-05-15T11:06:19.638Z,5.77
2018-05-15T11:07:22.994Z,5.43
2018-05-15T11:08:26.959Z,6.37
2018-05-15T11:09:30.311Z,5.80
2018-05-15T11:10:33.651Z,5.50
2018-05-15T11:11:36.987Z,6.30
2018-05-15T11:12:40.389Z,6.00
2018-05-15T11:13:43.671Z,6.53
2018-05-15T11:14:46.983Z,5.83
2018-05-15T11:15:50.292Z,5.90
2018-05-15T11:16:53.603Z,6.40
2018-05-15T11:17:56.967Z,6.70
2018-05-15T11:20:46.167Z,6.10
2018-05-15T11:22:01.340Z,6.70
2018-05-15T11:23:16.861Z,7.80
2018-05-15T11:24:32.097Z,5.30
2018-05-15T11:25:35.391Z,5.60
2018-05-15T11:26:38.685Z,5.73
2018-05-15T11:27:42.074Z,5.97
2018-05-15T11:28:45.718Z,6.43
2018-05-15T11:29:49.036Z,6.00
2018-05-15T11:30:52.363Z,6.67
2018-05-15T11:31:55.660Z,6.93
2018-05-15T11:32:58.959Z,6.17
2018-05-15T11:34:02.302Z,6.37
2018-05-15T11:35:05.610Z,5.80
2018-05-15T11:36:08.907Z,6.70
2018-05-15T11:37:12.208Z,6.53
2018-05-15T11:38:15.512Z,6.60
2018-05-15T11:39:18.865Z,6.60
2018-05-15T11:40:22.301Z,6.97
2018-05-15T11:41:25.688Z,6.87
2018-05-15T11:42:28.901Z,5.43
2018-05-15T11:43:32.212Z,6.13
2018-05-15T11:44:35.552Z,5.37
2018-05-15T11:45:38.862Z,5.63
2018-05-15T11:46:42.169Z,6.30
2018-05-15T11:47:45.633Z,6.10
2018-05-15T11:48:49.375Z,5.90
2018-05-15T11:49:53.154Z,6.13
2018-05-15T11:50:55.899Z,6.40
2018-05-15T11:51:59.496Z,6.13
2018-05-15T11:53:02.913Z,6.00
2018-05-15T11:54:05.483Z,5.97
2018-05-15T11:55:08.821Z,6.27
2018-05-15T11:56:12.122Z,6.47
2018-05-15T11:57:15.452Z,6.07
2018-05-15T11:58:18.913Z,6.40
2018-05-15T11:59:22.424Z,6.40
2018-05-15T12:00:25.775Z,6.70
2018-05-15T12:01:29.079Z,5.90
2018-05-15T12:02:32.533Z,6.23
2018-05-15T12:03:35.803Z,5.70
2018-05-15T12:04:39.108Z,6.40
2018-05-15T12:05:42.451Z,6.27
2018-05-15T12:06:45.757Z,6.00
2018-05-15T12:07:49.074Z,6.37
2018-05-15T12:08:52.390Z,6.50
2018-05-15T12:09:55.680Z,6.20
2018-05-15T12:10:59.021Z,6.27
2018-05-15T12:12:02.333Z,6.00
2018-05-15T12:13:05.631Z,6.30
2018-05-15T12:14:08.959Z,6.30
2018-05-15T12:15:12.352Z,6.93
2018-05-15T12:16:15.705Z,7.00
2018-05-15T12:17:19.056Z,6.80
2018-05-15T12:18:22.430Z,7.20
2018-05-15T12:19:25.911Z,6.47
2018-05-15T12:20:29.217Z,7.60
2018-05-15T12:21:32.552Z,7.30
2018-05-15T12:22:35.847Z,6.77
2018-05-15T12:23:39.164Z,6.20
2018-05-15T12:24:42.487Z,6.87
2018-05-15T12:25:45.803Z,7.17
2018-05-15T12:26:49.244Z,6.73
2018-05-15T12:27:52.537Z,6.60
2018-05-15T12:28:55.827Z,6.93
2018-05-15T12:29:59.130Z,7.70
2018-05-15T12:31:02.435Z,7.20
2018-05-15T12:32:05.867Z,6.30
2018-05-15T12:33:09.173Z,7.40
2018-05-15T12:34:12.474Z,7.30
2018-05-15T12:35:15.793Z,6.77
2018-05-15T12:36:19.107Z,6.73
2018-05-15T12:37:22.438Z,7.40
2018-05-15T12:38:26.471Z,8.63
2018-05-15T12:39:29.776Z,7.90
2018-05-15T12:40:33.251Z,7.00
2018-05-15T12:41:36.611Z,7.30
2018-05-15T12:42:39.931Z,7.50
2018-05-15T12:43:43.248Z,8.63
2018-05-15T12:44:46.884Z,7.03
2018-05-15T12:45:50.211Z,7.80
2018-05-15T12:46:53.505Z,7.93
2018-05-15T12:47:56.932Z,7.70
2018-05-15T12:49:00.187Z,7.73
2018-05-15T12:50:03.506Z,6.93
2018-05-15T12:51:06.821Z,6.87
2018-05-15T12:52:10.128Z,7.27
2018-05-15T12:53:13.469Z,8.27
2018-05-15T12:54:16.789Z,8.50
2018-05-15T12:55:20.087Z,6.83
2018-05-15T12:56:23.380Z,7.80
2018-05-15T12:57:26.700Z,6.93
2018-05-15T12:58:30.095Z,6.70
2018-05-15T12:59:33.476Z,7.30
2018-05-15T13:00:36.777Z,7.10
2018-05-15T13:01:40.102Z,6.03
2018-05-15T13:02:43.410Z,7.50
2018-05-15T13:03:46.741Z,7.00
2018-05-15T13:04:50.048Z,6.90
2018-05-15T13:05:53.362Z,7.30
2018-05-15T13:07:00.973Z,6.80
2018-05-15T13:08:04.276Z,7.27
2018-05-15T13:09:07.597Z,8.60
2018-05-15T13:10:10.996Z,7.03
2018-05-15T13:11:14.293Z,7.37
2018-05-15T13:12:17.607Z,7.17
2018-05-15T13:13:20.923Z,6.80
2018-05-15T13:14:24.333Z,7.07
2018-05-15T13:15:27.638Z,9.50
2018-05-15T13:16:30.960Z,6.57
2018-05-15T13:17:34.263Z,6.80
2018-05-15T13:18:37.673Z,6.30
2018-05-15T13:19:40.903Z,7.07
2018-05-15T13:20:44.218Z,6.87
2018-05-15T13:21:47.565Z,7.03
2018-05-15T13:22:50.852Z,7.53
2018-05-15T13:23:54.164Z,7.33
2018-05-15T13:24:57.519Z,7.93
2018-05-15T13:26:00.864Z,6.67
2018-05-15T13:27:04.231Z,6.90
2018-05-15T13:28:07.536Z,6.50
2018-05-15T13:29:10.838Z,7.13
2018-05-15T13:30:14.241Z,7.10
2018-05-15T13:31:17.562Z,6.77
2018-05-15T13:32:20.899Z,6.43
2018-05-15T13:33:24.172Z,6.47
2018-05-15T13:34:27.505Z,6.93
2018-05-15T13:35:30.856Z,7.30
2018-05-15T13:36:34.167Z,6.47
2018-05-15T13:37:37.476Z,6.93
2018-05-15T13:38:40.815Z,6.93
2018-05-15T13:39:44.133Z,6.90
2018-05-15T13:40:47.599Z,6.73
2018-05-15T13:41:50.908Z,6.70
2018-05-15T13:42:54.671Z,6.23
2018-05-15T13:43:57.962Z,5.67
2018-05-15T13:45:01.264Z,6.00
2018-05-15T13:46:04.610Z,6.90
2018-05-15T13:47:07.977Z,6.23
2018-05-15T13:48:11.313Z,7.17
2018-05-15T13:49:14.634Z,6.23
2018-05-15T13:50:17.947Z,6.70
2018-05-15T13:51:21.286Z,6.00
2018-05-15T13:52:24.595Z,6.70
2018-05-15T13:53:27.913Z,6.40
2018-05-15T13:54:31.311Z,6.17
2018-05-15T13:55:34.626Z,5.73
2018-05-15T13:56:37.963Z,6.20
2018-05-15T13:57:41.299Z,6.30
2018-05-15T13:58:44.613Z,5.77
2018-05-15T13:59:47.935Z,6.83
2018-05-15T14:00:51.282Z,6.37
2018-05-15T14:01:54.627Z,6.67
2018-05-15T14:02:57.970Z,6.80
2018-05-15T14:04:01.487Z,6.57
2018-05-15T14:05:04.995Z,6.33
2018-05-15T14:06:08.368Z,6.80
2018-05-15T14:07:11.737Z,6.50
2018-05-15T14:08:15.052Z,6.10